sensor_id;sensor_type;location;lat;lon;timestamp;P1;durP1;ratioP1;P2;durP2;ratioP2
22176;SDS011;11254;50.098;8.726;2022-07-29T00:00:21;6.38;;;1.98;;
22176;SDS011;11254;50.098;8.726;2022-07-29T00:02:49;4.47;;;1.80;;
22176;SDS011;11254;50.098;8.726;2022-07-29T00:05:18;5.20;;;1.83;;
22176;SDS011;11254;50.098;8.726;2022-07-29T00:07:45;4.75;;;1.67;;
22176;SDS011;11254;50.098;8.726;2022-07-29T00:10:15;4.03;;;1.90;;
22176;SDS011;11254;50.098;8.726;2022-07-29T00:12:43;5.68;;;2.00;;
22176;SDS011;11254;50.098;8.726;2022-07-29T00:15:12;9.93;;;2.03;;
22176;SDS011;11254;50.098;8.726;2022-07-29T00:17:40;9.80;;;1.95;;
22176;SDS011;11254;50.098;8.726;2022-07-29T00:20:09;4.32;;;1.63;;
22176;SDS011;11254;50.098;8.726;2022-07-29T00:22:37;4.50;;;2.10;;
22176;SDS011;11254;50.098;8.726;2022-07-29T00:25:05;3.72;;;1.58;;
22176;SDS011;11254;50.098;8.726;2022-07-29T00:27:36;7.32;;;2.03;;
22176;SDS011;11254;50.098;8.726;2022-07-29T00:30:04;4.80;;;1.83;;
22176;SDS011;11254;50.098;8.726;2022-07-29T00:32:33;4.45;;;2.20;;
22176;SDS011;11254;50.098;8.726;2022-07-29T00:35:02;5.03;;;2.10;;
22176;SDS011;11254;50.098;8.726;2022-07-29T00:37:48;5.07;;;2.10;;
22176;SDS011;11254;50.098;8.726;2022-07-29T00:40:16;5.82;;;2.03;;
22176;SDS011;11254;50.098;8.726;2022-07-29T00:42:50;4.35;;;1.80;;
22176;SDS011;11254;50.098;8.726;2022-07-29T00:45:19;6.40;;;1.90;;
22176;SDS011;11254;50.098;8.726;2022-07-29T00:47:48;5.55;;;1.90;;
22176;SDS011;11254;50.098;8.726;2022-07-29T00:50:16;4.63;;;1.80;;
22176;SDS011;11254;50.098;8.726;2022-07-29T00:52:45;4.22;;;1.70;;
22176;SDS011;11254;50.098;8.726;2022-07-29T00:55:14;4.32;;;1.50;;
22176;SDS011;11254;50.098;8.726;2022-07-29T00:57:43;5.28;;;1.67;;
22176;SDS011;11254;50.098;8.726;2022-07-29T01:00:15;3.47;;;1.55;;
22176;SDS011;11254;50.098;8.726;2022-07-29T01:02:45;3.60;;;1.60;;
22176;SDS011;11254;50.098;8.726;2022-07-29T01:05:15;7.07;;;1.73;;
22176;SDS011;11254;50.098;8.726;2022-07-29T01:07:45;4.60;;;1.85;;
22176;SDS011;11254;50.098;8.726;2022-07-29T01:10:15;3.92;;;1.65;;
22176;SDS011;11254;50.098;8.726;2022-07-29T01:12:46;6.30;;;1.95;;
22176;SDS011;11254;50.098;8.726;2022-07-29T01:15:17;6.15;;;1.92;;
22176;SDS011;11254;50.098;8.726;2022-07-29T01:17:46;4.53;;;2.03;;
22176;SDS011;11254;50.098;8.726;2022-07-29T01:20:21;4.78;;;1.80;;
22176;SDS011;11254;50.098;8.726;2022-07-29T01:23:08;4.88;;;2.05;;
22176;SDS011;11254;50.098;8.726;2022-07-29T01:25:54;5.40;;;1.70;;
22176;SDS011;11254;50.098;8.726;2022-07-29T01:28:45;6.68;;;1.77;;
22176;SDS011;11254;50.098;8.726;2022-07-29T01:31:20;8.82;;;1.90;;
22176;SDS011;11254;50.098;8.726;2022-07-29T01:33:57;4.85;;;1.80;;
22176;SDS011;11254;50.098;8.726;2022-07-29T01:36:31;3.92;;;1.80;;
22176;SDS011;11254;50.098;8.726;2022-07-29T01:39:04;4.47;;;2.10;;
22176;SDS011;11254;50.098;8.726;2022-07-29T01:41:36;5.80;;;1.77;;
22176;SDS011;11254;50.098;8.726;2022-07-29T01:44:13;4.82;;;2.00;;
22176;SDS011;11254;50.098;8.726;2022-07-29T01:47:01;4.93;;;1.90;;
22176;SDS011;11254;50.098;8.726;2022-07-29T01:49:35;4.82;;;1.92;;
22176;SDS011;11254;50.098;8.726;2022-07-29T01:52:07;4.13;;;1.80;;
22176;SDS011;11254;50.098;8.726;2022-07-29T01:54:45;5.93;;;2.15;;
22176;SDS011;11254;50.098;8.726;2022-07-29T01:57:18;3.38;;;1.90;;
22176;SDS011;11254;50.098;8.726;2022-07-29T01:59:48;4.13;;;1.92;;
22176;SDS011;11254;50.098;8.726;2022-07-29T02:02:19;5.25;;;2.22;;
22176;SDS011;11254;50.098;8.726;2022-07-29T02:04:49;5.93;;;2.10;;
22176;SDS011;11254;50.098;8.726;2022-07-29T02:07:20;5.32;;;2.22;;
22176;SDS011;11254;50.098;8.726;2022-07-29T02:09:50;8.40;;;2.10;;
22176;SDS011;11254;50.098;8.726;2022-07-29T02:12:20;5.72;;;2.30;;
22176;SDS011;11254;50.098;8.726;2022-07-29T02:14:50;4.47;;;1.70;;
22176;SDS011;11254;50.098;8.726;2022-07-29T02:17:23;5.50;;;2.10;;
22176;SDS011;11254;50.098;8.726;2022-07-29T02:19:56;7.80;;;1.77;;
22176;SDS011;11254;50.098;8.726;2022-07-29T02:22:26;3.50;;;1.70;;
22176;SDS011;11254;50.098;8.726;2022-07-29T02:24:57;4.85;;;1.92;;
22176;SDS011;11254;50.098;8.726;2022-07-29T02:27:28;6.72;;;1.90;;
22176;SDS011;11254;50.098;8.726;2022-07-29T02:29:57;4.60;;;1.95;;
22176;SDS011;11254;50.098;8.726;2022-07-29T02:32:29;5.38;;;2.13;;
22176;SDS011;11254;50.098;8.726;2022-07-29T02:34:59;4.68;;;2.10;;
22176;SDS011;11254;50.098;8.726;2022-07-29T02:37:28;6.75;;;2.30;;
22176;SDS011;11254;50.098;8.726;2022-07-29T02:39:58;6.57;;;2.30;;
22176;SDS011;11254;50.098;8.726;2022-07-29T02:42:26;5.80;;;2.40;;
22176;SDS011;11254;50.098;8.726;2022-07-29T02:44:55;5.30;;;2.10;;
22176;SDS011;11254;50.098;8.726;2022-07-29T02:47:25;6.43;;;2.20;;
22176;SDS011;11254;50.098;8.726;2022-07-29T02:50:08;5.07;;;2.28;;
22176;SDS011;11254;50.098;8.726;2022-07-29T02:52:42;5.00;;;2.00;;
22176;SDS011;11254;50.098;8.726;2022-07-29T02:55:15;4.60;;;2.10;;
22176;SDS011;11254;50.098;8.726;2022-07-29T02:57:46;5.60;;;2.25;;
22176;SDS011;11254;50.098;8.726;2022-07-29T03:00:21;5.53;;;2.33;;
22176;SDS011;11254;50.098;8.726;2022-07-29T03:02:53;6.07;;;2.50;;
22176;SDS011;11254;50.098;8.726;2022-07-29T03:05:23;5.53;;;2.30;;
22176;SDS011;11254;50.098;8.726;2022-07-29T03:07:54;5.35;;;2.05;;
22176;SDS011;11254;50.098;8.726;2022-07-29T03:10:24;5.78;;;2.38;;
22176;SDS011;11254;50.098;8.726;2022-07-29T03:12:54;6.10;;;2.60;;
22176;SDS011;11254;50.098;8.726;2022-07-29T03:15:24;7.95;;;2.50;;
22176;SDS011;11254;50.098;8.726;2022-07-29T03:17:55;5.18;;;2.20;;
22176;SDS011;11254;50.098;8.726;2022-07-29T03:20:24;5.18;;;2.47;;
22176;SDS011;11254;50.098;8.726;2022-07-29T03:22:53;4.97;;;2.10;;
22176;SDS011;11254;50.098;8.726;2022-07-29T03:25:21;4.70;;;2.45;;
22176;SDS011;11254;50.098;8.726;2022-07-29T03:27:49;6.22;;;2.40;;
22176;SDS011;11254;50.098;8.726;2022-07-29T03:30:17;9.15;;;2.47;;
22176;SDS011;11254;50.098;8.726;2022-07-29T03:32:47;4.93;;;2.20;;
22176;SDS011;11254;50.098;8.726;2022-07-29T03:35:19;7.22;;;2.28;;
22176;SDS011;11254;50.098;8.726;2022-07-29T03:37:47;6.63;;;2.45;;
22176;SDS011;11254;50.098;8.726;2022-07-29T03:40:16;5.15;;;2.22;;
22176;SDS011;11254;50.098;8.726;2022-07-29T03:42:49;7.45;;;2.45;;
22176;SDS011;11254;50.098;8.726;2022-07-29T03:45:19;8.13;;;2.53;;
22176;SDS011;11254;50.098;8.726;2022-07-29T03:47:53;4.85;;;2.47;;
22176;SDS011;11254;50.098;8.726;2022-07-29T03:50:28;6.10;;;2.47;;
22176;SDS011;11254;50.098;8.726;2022-07-29T03:52:57;6.82;;;2.35;;
22176;SDS011;11254;50.098;8.726;2022-07-29T03:55:25;4.63;;;2.28;;
22176;SDS011;11254;50.098;8.726;2022-07-29T03:57:55;4.53;;;2.20;;
22176;SDS011;11254;50.098;8.726;2022-07-29T04:00:25;4.35;;;2.22;;
22176;SDS011;11254;50.098;8.726;2022-07-29T04:02:54;9.90;;;2.75;;
22176;SDS011;11254;50.098;8.726;2022-07-29T04:05:22;7.90;;;2.70;;
22176;SDS011;11254;50.098;8.726;2022-07-29T04:07:52;6.50;;;2.08;;
22176;SDS011;11254;50.098;8.726;2022-07-29T04:10:20;5.47;;;2.17;;
22176;SDS011;11254;50.098;8.726;2022-07-29T04:12:57;5.70;;;2.38;;
22176;SDS011;11254;50.098;8.726;2022-07-29T04:15:25;6.13;;;2.30;;
22176;SDS011;11254;50.098;8.726;2022-07-29T04:17:57;6.40;;;2.13;;
22176;SDS011;11254;50.098;8.726;2022-07-29T04:20:25;6.40;;;2.80;;
22176;SDS011;11254;50.098;8.726;2022-07-29T04:22:55;6.03;;;2.53;;
22176;SDS011;11254;50.098;8.726;2022-07-29T04:25:23;5.95;;;2.30;;
22176;SDS011;11254;50.098;8.726;2022-07-29T04:27:51;4.68;;;1.92;;
22176;SDS011;11254;50.098;8.726;2022-07-29T04:30:28;5.35;;;2.40;;
22176;SDS011;11254;50.098;8.726;2022-07-29T04:32:56;7.13;;;2.10;;
22176;SDS011;11254;50.098;8.726;2022-07-29T04:35:24;6.00;;;2.35;;
22176;SDS011;11254;50.098;8.726;2022-07-29T04:37:52;5.03;;;2.08;;
22176;SDS011;11254;50.098;8.726;2022-07-29T04:40:22;5.85;;;2.15;;
22176;SDS011;11254;50.098;8.726;2022-07-29T04:42:50;5.25;;;2.40;;
22176;SDS011;11254;50.098;8.726;2022-07-29T04:45:19;5.28;;;2.30;;
22176;SDS011;11254;50.098;8.726;2022-07-29T04:47:48;6.50;;;2.55;;
22176;SDS011;11254;50.098;8.726;2022-07-29T04:50:16;4.97;;;1.90;;
22176;SDS011;11254;50.098;8.726;2022-07-29T04:52:44;6.22;;;2.40;;
22176;SDS011;11254;50.098;8.726;2022-07-29T04:55:14;4.72;;;1.90;;
22176;SDS011;11254;50.098;8.726;2022-07-29T04:57:42;5.10;;;2.28;;
22176;SDS011;11254;50.098;8.726;2022-07-29T05:00:10;9.27;;;2.40;;
22176;SDS011;11254;50.098;8.726;2022-07-29T05:02:38;5.82;;;2.13;;
22176;SDS011;11254;50.098;8.726;2022-07-29T05:05:07;5.30;;;2.25;;
22176;SDS011;11254;50.098;8.726;2022-07-29T05:07:35;6.03;;;2.00;;
22176;SDS011;11254;50.098;8.726;2022-07-29T05:10:04;6.65;;;2.00;;
22176;SDS011;11254;50.098;8.726;2022-07-29T05:12:34;6.93;;;2.35;;
22176;SDS011;11254;50.098;8.726;2022-07-29T05:15:02;8.15;;;2.45;;
22176;SDS011;11254;50.098;8.726;2022-07-29T05:17:31;6.10;;;2.35;;
22176;SDS011;11254;50.098;8.726;2022-07-29T05:20:00;6.63;;;2.33;;
22176;SDS011;11254;50.098;8.726;2022-07-29T05:22:28;7.32;;;2.42;;
22176;SDS011;11254;50.098;8.726;2022-07-29T05:24:56;6.63;;;2.50;;
22176;SDS011;11254;50.098;8.726;2022-07-29T05:27:24;8.38;;;2.40;;
22176;SDS011;11254;50.098;8.726;2022-07-29T05:29:53;6.10;;;2.17;;
22176;SDS011;11254;50.098;8.726;2022-07-29T05:32:21;7.15;;;2.20;;
22176;SDS011;11254;50.098;8.726;2022-07-29T05:34:49;5.03;;;2.10;;
22176;SDS011;11254;50.098;8.726;2022-07-29T05:37:17;7.25;;;2.80;;
22176;SDS011;11254;50.098;8.726;2022-07-29T05:39:46;7.38;;;2.13;;
22176;SDS011;11254;50.098;8.726;2022-07-29T05:42:22;7.35;;;2.60;;
22176;SDS011;11254;50.098;8.726;2022-07-29T05:44:50;5.40;;;2.35;;
22176;SDS011;11254;50.098;8.726;2022-07-29T05:47:20;5.65;;;2.20;;
22176;SDS011;11254;50.098;8.726;2022-07-29T05:49:48;6.28;;;2.67;;
22176;SDS011;11254;50.098;8.726;2022-07-29T05:52:16;6.15;;;2.55;;
22176;SDS011;11254;50.098;8.726;2022-07-29T05:54:45;5.85;;;2.45;;
22176;SDS011;11254;50.098;8.726;2022-07-29T05:57:15;5.55;;;2.40;;
22176;SDS011;11254;50.098;8.726;2022-07-29T05:59:43;5.25;;;2.63;;
22176;SDS011;11254;50.098;8.726;2022-07-29T06:02:13;5.95;;;2.80;;
22176;SDS011;11254;50.098;8.726;2022-07-29T06:04:41;9.80;;;2.60;;
22176;SDS011;11254;50.098;8.726;2022-07-29T06:07:10;4.88;;;2.17;;
22176;SDS011;11254;50.098;8.726;2022-07-29T06:09:38;5.18;;;2.50;;
22176;SDS011;11254;50.098;8.726;2022-07-29T06:12:06;8.32;;;2.20;;
22176;SDS011;11254;50.098;8.726;2022-07-29T06:14:35;3.75;;;1.92;;
22176;SDS011;11254;50.098;8.726;2022-07-29T06:17:04;7.82;;;2.20;;
22176;SDS011;11254;50.098;8.726;2022-07-29T06:19:34;4.50;;;2.13;;
22176;SDS011;11254;50.098;8.726;2022-07-29T06:22:03;9.20;;;2.20;;
22176;SDS011;11254;50.098;8.726;2022-07-29T06:24:31;5.93;;;2.10;;
22176;SDS011;11254;50.098;8.726;2022-07-29T06:26:59;6.57;;;2.20;;
22176;SDS011;11254;50.098;8.726;2022-07-29T06:29:27;7.28;;;1.90;;
22176;SDS011;11254;50.098;8.726;2022-07-29T06:31:56;7.45;;;2.67;;
22176;SDS011;11254;50.098;8.726;2022-07-29T06:34:24;4.45;;;2.03;;
22176;SDS011;11254;50.098;8.726;2022-07-29T06:36:53;6.50;;;2.22;;
22176;SDS011;11254;50.098;8.726;2022-07-29T06:39:22;6.90;;;2.22;;
22176;SDS011;11254;50.098;8.726;2022-07-29T06:41:50;6.78;;;2.67;;
22176;SDS011;11254;50.098;8.726;2022-07-29T06:44:23;6.57;;;2.08;;
22176;SDS011;11254;50.098;8.726;2022-07-29T06:46:51;7.03;;;2.30;;
22176;SDS011;11254;50.098;8.726;2022-07-29T06:49:21;5.60;;;2.05;;
22176;SDS011;11254;50.098;8.726;2022-07-29T06:51:50;5.07;;;2.10;;
22176;SDS011;11254;50.098;8.726;2022-07-29T06:54:20;6.65;;;2.20;;
22176;SDS011;11254;50.098;8.726;2022-07-29T06:56:48;5.45;;;2.10;;
22176;SDS011;11254;50.098;8.726;2022-07-29T06:59:16;4.57;;;2.30;;
22176;SDS011;11254;50.098;8.726;2022-07-29T07:01:51;5.82;;;2.30;;
22176;SDS011;11254;50.098;8.726;2022-07-29T07:04:19;6.95;;;1.85;;
22176;SDS011;11254;50.098;8.726;2022-07-29T07:06:47;4.63;;;2.08;;
22176;SDS011;11254;50.098;8.726;2022-07-29T07:09:15;7.60;;;2.08;;
22176;SDS011;11254;50.098;8.726;2022-07-29T07:11:45;4.45;;;2.03;;
22176;SDS011;11254;50.098;8.726;2022-07-29T07:14:15;6.20;;;2.22;;
22176;SDS011;11254;50.098;8.726;2022-07-29T07:16:44;7.35;;;1.88;;
22176;SDS011;11254;50.098;8.726;2022-07-29T07:19:13;13.20;;;2.20;;
22176;SDS011;11254;50.098;8.726;2022-07-29T07:21:41;4.93;;;2.10;;
22176;SDS011;11254;50.098;8.726;2022-07-29T07:24:09;4.63;;;2.00;;
22176;SDS011;11254;50.098;8.726;2022-07-29T07:26:37;9.23;;;2.33;;
22176;SDS011;11254;50.098;8.726;2022-07-29T07:29:07;6.25;;;2.45;;
22176;SDS011;11254;50.098;8.726;2022-07-29T07:31:36;9.30;;;2.35;;
22176;SDS011;11254;50.098;8.726;2022-07-29T07:34:04;6.63;;;2.35;;
22176;SDS011;11254;50.098;8.726;2022-07-29T07:36:32;5.95;;;2.20;;
22176;SDS011;11254;50.098;8.726;2022-07-29T07:39:00;4.78;;;2.17;;
22176;SDS011;11254;50.098;8.726;2022-07-29T07:41:29;5.15;;;2.10;;
22176;SDS011;11254;50.098;8.726;2022-07-29T07:43:58;5.60;;;1.95;;
22176;SDS011;11254;50.098;8.726;2022-07-29T07:46:27;4.40;;;2.10;;
22176;SDS011;11254;50.098;8.726;2022-07-29T07:48:56;5.78;;;2.35;;
22176;SDS011;11254;50.098;8.726;2022-07-29T07:51:24;5.00;;;2.20;;
22176;SDS011;11254;50.098;8.726;2022-07-29T07:53:52;6.53;;;2.22;;
22176;SDS011;11254;50.098;8.726;2022-07-29T07:56:20;4.93;;;1.85;;
22176;SDS011;11254;50.098;8.726;2022-07-29T07:58:48;6.68;;;2.15;;
22176;SDS011;11254;50.098;8.726;2022-07-29T08:01:16;3.95;;;2.25;;
22176;SDS011;11254;50.098;8.726;2022-07-29T08:03:47;4.25;;;2.08;;
22176;SDS011;11254;50.098;8.726;2022-07-29T08:06:15;4.43;;;2.05;;
22176;SDS011;11254;50.098;8.726;2022-07-29T08:08:43;4.93;;;2.38;;
22176;SDS011;11254;50.098;8.726;2022-07-29T08:11:11;5.57;;;2.55;;
22176;SDS011;11254;50.098;8.726;2022-07-29T08:13:39;9.23;;;2.53;;
22176;SDS011;11254;50.098;8.726;2022-07-29T08:16:08;8.10;;;2.35;;
22176;SDS011;11254;50.098;8.726;2022-07-29T08:18:40;5.88;;;2.45;;
22176;SDS011;11254;50.098;8.726;2022-07-29T08:21:10;5.68;;;2.67;;
22176;SDS011;11254;50.098;8.726;2022-07-29T08:23:40;4.65;;;2.03;;
22176;SDS011;11254;50.098;8.726;2022-07-29T08:26:24;4.35;;;2.10;;
22176;SDS011;11254;50.098;8.726;2022-07-29T08:28:52;5.43;;;2.53;;
22176;SDS011;11254;50.098;8.726;2022-07-29T08:31:20;4.68;;;2.40;;
22176;SDS011;11254;50.098;8.726;2022-07-29T08:33:48;5.72;;;2.20;;
22176;SDS011;11254;50.098;8.726;2022-07-29T08:36:17;23.70;;;2.80;;
22176;SDS011;11254;50.098;8.726;2022-07-29T08:38:47;3.80;;;2.20;;
22176;SDS011;11254;50.098;8.726;2022-07-29T08:41:15;6.72;;;2.60;;
22176;SDS011;11254;50.098;8.726;2022-07-29T08:43:45;7.05;;;2.40;;
22176;SDS011;11254;50.098;8.726;2022-07-29T08:46:13;5.13;;;2.08;;
22176;SDS011;11254;50.098;8.726;2022-07-29T08:48:42;5.72;;;2.58;;
22176;SDS011;11254;50.098;8.726;2022-07-29T08:51:12;7.00;;;2.88;;
22176;SDS011;11254;50.098;8.726;2022-07-29T08:53:43;5.03;;;2.58;;
22176;SDS011;11254;50.098;8.726;2022-07-29T08:56:14;4.10;;;2.20;;
22176;SDS011;11254;50.098;8.726;2022-07-29T08:58:44;7.90;;;2.40;;
22176;SDS011;11254;50.098;8.726;2022-07-29T09:01:21;4.20;;;2.25;;
22176;SDS011;11254;50.098;8.726;2022-07-29T09:04:03;4.60;;;2.20;;
22176;SDS011;11254;50.098;8.726;2022-07-29T09:06:34;6.30;;;2.83;;
22176;SDS011;11254;50.098;8.726;2022-07-29T09:09:07;4.40;;;2.28;;
22176;SDS011;11254;50.098;8.726;2022-07-29T09:11:35;9.75;;;2.67;;
22176;SDS011;11254;50.098;8.726;2022-07-29T09:14:03;4.45;;;2.53;;
22176;SDS011;11254;50.098;8.726;2022-07-29T09:19:21;5.00;;;2.42;;
22176;SDS011;11254;50.098;8.726;2022-07-29T09:21:50;5.72;;;2.60;;
22176;SDS011;11254;50.098;8.726;2022-07-29T09:24:28;4.50;;;2.60;;
22176;SDS011;11254;50.098;8.726;2022-07-29T09:27:18;4.38;;;2.58;;
22176;SDS011;11254;50.098;8.726;2022-07-29T09:29:55;6.95;;;2.83;;
22176;SDS011;11254;50.098;8.726;2022-07-29T09:32:24;5.55;;;2.60;;
22176;SDS011;11254;50.098;8.726;2022-07-29T09:37:45;6.43;;;2.83;;
22176;SDS011;11254;50.098;8.726;2022-07-29T09:40:16;6.32;;;2.30;;
22176;SDS011;11254;50.098;8.726;2022-07-29T09:42:45;5.18;;;2.90;;
22176;SDS011;11254;50.098;8.726;2022-07-29T09:45:25;6.18;;;2.47;;
22176;SDS011;11254;50.098;8.726;2022-07-29T09:47:55;6.55;;;2.60;;
22176;SDS011;11254;50.098;8.726;2022-07-29T09:50:34;9.05;;;3.45;;
22176;SDS011;11254;50.098;8.726;2022-07-29T09:53:03;4.68;;;2.35;;
22176;SDS011;11254;50.098;8.726;2022-07-29T09:55:32;6.15;;;2.90;;
22176;SDS011;11254;50.098;8.726;2022-07-29T09:58:16;4.80;;;2.90;;
22176;SDS011;11254;50.098;8.726;2022-07-29T10:00:45;5.10;;;2.70;;
22176;SDS011;11254;50.098;8.726;2022-07-29T10:03:15;10.60;;;2.92;;
22176;SDS011;11254;50.098;8.726;2022-07-29T10:05:44;6.55;;;2.92;;
22176;SDS011;11254;50.098;8.726;2022-07-29T10:08:12;4.75;;;2.65;;
22176;SDS011;11254;50.098;8.726;2022-07-29T10:10:42;4.22;;;2.28;;
22176;SDS011;11254;50.098;8.726;2022-07-29T10:13:11;5.13;;;2.58;;
22176;SDS011;11254;50.098;8.726;2022-07-29T10:15:42;4.82;;;2.53;;
22176;SDS011;11254;50.098;8.726;2022-07-29T10:18:13;4.60;;;2.70;;
22176;SDS011;11254;50.098;8.726;2022-07-29T10:20:44;6.60;;;2.80;;
22176;SDS011;11254;50.098;8.726;2022-07-29T10:23:12;5.25;;;2.60;;
22176;SDS011;11254;50.098;8.726;2022-07-29T10:25:40;6.60;;;2.83;;
22176;SDS011;11254;50.098;8.726;2022-07-29T10:28:12;6.88;;;2.80;;
22176;SDS011;11254;50.098;8.726;2022-07-29T10:30:42;5.15;;;2.80;;
22176;SDS011;11254;50.098;8.726;2022-07-29T10:33:18;7.43;;;3.20;;
22176;SDS011;11254;50.098;8.726;2022-07-29T10:36:02;5.88;;;3.03;;
22176;SDS011;11254;50.098;8.726;2022-07-29T10:38:43;4.45;;;3.00;;
22176;SDS011;11254;50.098;8.726;2022-07-29T10:41:21;5.53;;;3.10;;
22176;SDS011;11254;50.098;8.726;2022-07-29T10:44:13;5.75;;;3.10;;
22176;SDS011;11254;50.098;8.726;2022-07-29T10:46:45;6.93;;;3.33;;
22176;SDS011;11254;50.098;8.726;2022-07-29T10:49:15;6.85;;;3.25;;
22176;SDS011;11254;50.098;8.726;2022-07-29T10:54:44;6.60;;;3.15;;
22176;SDS011;11254;50.098;8.726;2022-07-29T10:57:18;9.73;;;3.58;;
22176;SDS011;11254;50.098;8.726;2022-07-29T11:02:56;6.60;;;3.78;;
22176;SDS011;11254;50.098;8.726;2022-07-29T11:05:25;8.32;;;3.05;;
22176;SDS011;11254;50.098;8.726;2022-07-29T11:08:17;6.18;;;3.33;;
22176;SDS011;11254;50.098;8.726;2022-07-29T11:10:53;5.82;;;3.55;;
22176;SDS011;11254;50.098;8.726;2022-07-29T11:14:04;7.68;;;3.05;;
22176;SDS011;11254;50.098;8.726;2022-07-29T11:19:31;6.15;;;3.13;;
22176;SDS011;11254;50.098;8.726;2022-07-29T11:22:01;6.53;;;3.20;;
22176;SDS011;11254;50.098;8.726;2022-07-29T11:24:31;5.88;;;3.60;;
22176;SDS011;11254;50.098;8.726;2022-07-29T11:27:14;5.55;;;3.35;;
22176;SDS011;11254;50.098;8.726;2022-07-29T11:29:51;8.35;;;3.38;;
22176;SDS011;11254;50.098;8.726;2022-07-29T11:32:21;5.20;;;3.38;;
22176;SDS011;11254;50.098;8.726;2022-07-29T11:35:12;5.93;;;2.80;;
22176;SDS011;11254;50.098;8.726;2022-07-29T11:37:44;6.70;;;3.33;;
22176;SDS011;11254;50.098;8.726;2022-07-29T11:40:21;6.38;;;3.35;;
22176;SDS011;11254;50.098;8.726;2022-07-29T11:42:49;6.35;;;3.60;;
22176;SDS011;11254;50.098;8.726;2022-07-29T11:45:21;6.38;;;3.30;;
22176;SDS011;11254;50.098;8.726;2022-07-29T11:48:14;7.55;;;3.47;;
22176;SDS011;11254;50.098;8.726;2022-07-29T11:50:58;6.50;;;3.40;;
22176;SDS011;11254;50.098;8.726;2022-07-29T11:53:28;6.22;;;3.72;;
22176;SDS011;11254;50.098;8.726;2022-07-29T11:56:16;7.20;;;3.40;;
22176;SDS011;11254;50.098;8.726;2022-07-29T11:58:51;5.22;;;3.55;;
22176;SDS011;11254;50.098;8.726;2022-07-29T12:01:35;6.50;;;3.40;;
22176;SDS011;11254;50.098;8.726;2022-07-29T12:04:03;5.35;;;3.22;;
22176;SDS011;11254;50.098;8.726;2022-07-29T12:06:33;7.35;;;3.63;;
22176;SDS011;11254;50.098;8.726;2022-07-29T12:09:06;8.55;;;3.30;;
22176;SDS011;11254;50.098;8.726;2022-07-29T12:11:40;7.10;;;3.17;;
22176;SDS011;11254;50.098;8.726;2022-07-29T12:14:25;7.38;;;3.50;;
22176;SDS011;11254;50.098;8.726;2022-07-29T12:16:55;5.70;;;3.58;;
22176;SDS011;11254;50.098;8.726;2022-07-29T12:19:24;7.90;;;3.80;;
22176;SDS011;11254;50.098;8.726;2022-07-29T12:21:53;4.75;;;3.25;;
22176;SDS011;11254;50.098;8.726;2022-07-29T12:24:25;7.65;;;3.80;;
22176;SDS011;11254;50.098;8.726;2022-07-29T12:26:53;7.55;;;4.22;;
22176;SDS011;11254;50.098;8.726;2022-07-29T12:29:23;7.82;;;3.75;;
22176;SDS011;11254;50.098;8.726;2022-07-29T12:32:02;7.75;;;3.70;;
22176;SDS011;11254;50.098;8.726;2022-07-29T12:34:44;7.97;;;3.72;;
22176;SDS011;11254;50.098;8.726;2022-07-29T12:37:12;6.53;;;3.97;;
22176;SDS011;11254;50.098;8.726;2022-07-29T12:39:41;6.03;;;3.95;;
22176;SDS011;11254;50.098;8.726;2022-07-29T12:42:10;8.43;;;4.15;;
22176;SDS011;11254;50.098;8.726;2022-07-29T12:44:44;6.75;;;3.97;;
22176;SDS011;11254;50.098;8.726;2022-07-29T12:47:15;6.13;;;4.03;;
22176;SDS011;11254;50.098;8.726;2022-07-29T12:49:44;6.22;;;3.42;;
22176;SDS011;11254;50.098;8.726;2022-07-29T12:52:29;7.40;;;3.92;;
22176;SDS011;11254;50.098;8.726;2022-07-29T12:54:58;8.73;;;3.88;;
22176;SDS011;11254;50.098;8.726;2022-07-29T12:57:27;7.25;;;3.92;;
22176;SDS011;11254;50.098;8.726;2022-07-29T12:59:59;8.35;;;3.85;;
22176;SDS011;11254;50.098;8.726;2022-07-29T13:02:30;6.63;;;3.70;;
22176;SDS011;11254;50.098;8.726;2022-07-29T13:04:59;5.70;;;3.67;;
22176;SDS011;11254;50.098;8.726;2022-07-29T13:07:29;7.85;;;4.32;;
22176;SDS011;11254;50.098;8.726;2022-07-29T13:10:19;7.70;;;3.80;;
22176;SDS011;11254;50.098;8.726;2022-07-29T13:13:03;6.60;;;3.80;;
22176;SDS011;11254;50.098;8.726;2022-07-29T13:15:32;6.00;;;3.90;;
22176;SDS011;11254;50.098;8.726;2022-07-29T13:18:03;7.07;;;3.72;;
22176;SDS011;11254;50.098;8.726;2022-07-29T13:20:31;8.82;;;4.03;;
22176;SDS011;11254;50.098;8.726;2022-07-29T13:23:00;7.10;;;4.03;;
22176;SDS011;11254;50.098;8.726;2022-07-29T13:25:28;10.20;;;4.18;;
22176;SDS011;11254;50.098;8.726;2022-07-29T13:27:58;7.18;;;3.92;;
22176;SDS011;11254;50.098;8.726;2022-07-29T13:30:27;6.88;;;4.18;;
22176;SDS011;11254;50.098;8.726;2022-07-29T13:32:55;6.50;;;3.60;;
22176;SDS011;11254;50.098;8.726;2022-07-29T13:35:24;8.15;;;3.83;;
22176;SDS011;11254;50.098;8.726;2022-07-29T13:37:56;7.50;;;3.95;;
22176;SDS011;11254;50.098;8.726;2022-07-29T13:40:24;5.20;;;3.80;;
22176;SDS011;11254;50.098;8.726;2022-07-29T13:42:52;7.97;;;3.95;;
22176;SDS011;11254;50.098;8.726;2022-07-29T13:45:20;5.18;;;3.40;;
22176;SDS011;11254;50.098;8.726;2022-07-29T13:47:48;6.15;;;3.72;;
22176;SDS011;11254;50.098;8.726;2022-07-29T13:50:16;6.03;;;3.58;;
22176;SDS011;11254;50.098;8.726;2022-07-29T13:52:46;6.70;;;4.05;;
22176;SDS011;11254;50.098;8.726;2022-07-29T13:55:16;6.50;;;3.70;;
22176;SDS011;11254;50.098;8.726;2022-07-29T13:57:44;9.52;;;3.95;;
22176;SDS011;11254;50.098;8.726;2022-07-29T14:00:12;6.72;;;3.92;;
22176;SDS011;11254;50.098;8.726;2022-07-29T14:02:41;6.25;;;3.75;;
22176;SDS011;11254;50.098;8.726;2022-07-29T14:05:09;6.85;;;3.70;;
22176;SDS011;11254;50.098;8.726;2022-07-29T14:07:37;5.57;;;3.85;;
22176;SDS011;11254;50.098;8.726;2022-07-29T14:10:07;4.80;;;3.40;;
22176;SDS011;11254;50.098;8.726;2022-07-29T14:12:36;6.10;;;3.38;;
22176;SDS011;11254;50.098;8.726;2022-07-29T14:15:05;5.10;;;3.65;;
22176;SDS011;11254;50.098;8.726;2022-07-29T14:17:33;5.95;;;3.97;;
22176;SDS011;11254;50.098;8.726;2022-07-29T14:20:02;7.93;;;4.03;;
22176;SDS011;11254;50.098;8.726;2022-07-29T14:22:30;6.00;;;3.95;;
22176;SDS011;11254;50.098;8.726;2022-07-29T14:25:04;6.65;;;4.20;;
22176;SDS011;11254;50.098;8.726;2022-07-29T14:27:42;6.38;;;3.80;;
22176;SDS011;11254;50.098;8.726;2022-07-29T14:30:10;5.82;;;3.60;;
22176;SDS011;11254;50.098;8.726;2022-07-29T14:32:39;7.10;;;3.67;;
22176;SDS011;11254;50.098;8.726;2022-07-29T14:35:07;6.65;;;3.72;;
22176;SDS011;11254;50.098;8.726;2022-07-29T14:37:35;6.70;;;3.63;;
22176;SDS011;11254;50.098;8.726;2022-07-29T14:40:06;6.25;;;4.00;;
22176;SDS011;11254;50.098;8.726;2022-07-29T14:42:35;8.02;;;3.58;;
22176;SDS011;11254;50.098;8.726;2022-07-29T14:45:06;6.22;;;3.85;;
22176;SDS011;11254;50.098;8.726;2022-07-29T14:47:35;6.53;;;3.38;;
22176;SDS011;11254;50.098;8.726;2022-07-29T14:50:04;6.50;;;3.80;;
22176;SDS011;11254;50.098;8.726;2022-07-29T14:52:32;6.70;;;3.90;;
22176;SDS011;11254;50.098;8.726;2022-07-29T14:55:00;6.80;;;3.70;;
22176;SDS011;11254;50.098;8.726;2022-07-29T14:57:29;8.50;;;4.28;;
22176;SDS011;11254;50.098;8.726;2022-07-29T14:59:57;9.82;;;4.25;;
22176;SDS011;11254;50.098;8.726;2022-07-29T15:02:26;6.78;;;3.88;;
22176;SDS011;11254;50.098;8.726;2022-07-29T15:05:15;6.93;;;4.22;;
22176;SDS011;11254;50.098;8.726;2022-07-29T15:07:43;7.35;;;4.05;;
22176;SDS011;11254;50.098;8.726;2022-07-29T15:10:11;6.85;;;3.83;;
22176;SDS011;11254;50.098;8.726;2022-07-29T15:12:41;6.82;;;3.80;;
22176;SDS011;11254;50.098;8.726;2022-07-29T15:15:09;6.20;;;3.47;;
22176;SDS011;11254;50.098;8.726;2022-07-29T15:17:38;7.50;;;3.80;;
22176;SDS011;11254;50.098;8.726;2022-07-29T15:20:07;8.30;;;3.95;;
22176;SDS011;11254;50.098;8.726;2022-07-29T15:22:36;8.25;;;4.38;;
22176;SDS011;11254;50.098;8.726;2022-07-29T15:25:04;8.95;;;4.15;;